Time;durP1;ratioP1;P1;durP2;ratioP2;P2;SDS_P1;SDS_P2;PMS_P1;PMS_P2;Temp;Humidity;BMP_temperature;BMP_pressure;BME280_temperature;BME280_humidity;BME280_pressure;Samples;Min_cycle;Max_cycle;Signal;HPM_P1;HPM_P2
2022/11/15 00:00:06;;;;;;;2.08;0.85;;;15.70;87.60;;;;;;5051988;28;20032;-73
2022/11/15 00:02:32;;;;;;;2.25;0.80;;;15.70;87.60;;;;;;5051365;28;20032;-73
2022/11/15 00:04:57;;;;;;;4.15;1.10;;;15.70;87.60;;;;;;5052108;28;20398;-73
2022/11/15 00:07:23;;;;;;;3.17;1.10;;;15.70;87.60;;;;;;5041205;28;20484;-73
2022/11/15 00:09:48;;;;;;;4.85;1.00;;;15.70;87.70;;;;;;5032318;28;20478;-73
2022/11/15 00:12:14;;;;;;;1.35;0.70;;;15.70;88.70;;;;;;5032443;28;20431;-73
2022/11/15 00:14:40;;;;;;;3.03;1.10;;;15.70;87.70;;;;;;5031128;28;20072;-73
2022/11/15 00:17:05;;;;;;;3.88;1.52;;;15.70;87.70;;;;;;5032294;28;20113;-73
2022/11/15 00:19:31;;;;;;;8.77;1.10;;;15.60;87.70;;;;;;5032228;28;20029;-73
2022/11/15 00:21:56;;;;;;;4.15;0.80;;;15.70;87.80;;;;;;5030901;28;20018;-73
2022/11/15 00:24:22;;;;;;;3.85;0.75;;;15.60;87.70;;;;;;5031019;28;20480;-73
2022/11/15 00:26:48;;;;;;;2.80;0.73;;;15.70;87.80;;;;;;5030925;28;20029;-73
2022/11/15 00:29:13;;;;;;;2.13;1.08;;;15.70;87.80;;;;;;5031076;28;20032;-73
2022/11/15 00:31:39;;;;;;;2.95;0.90;;;15.70;87.80;;;;;;5030868;28;20488;-73
2022/11/15 00:34:04;;;;;;;2.17;0.82;;;15.70;87.80;;;;;;5030856;28;20030;-73
2022/11/15 00:36:34;;;;;;;2.50;0.90;;;15.70;87.80;;;;;;5034066;28;20503;-73
2022/11/15 00:39:00;;;;;;;3.10;0.90;;;15.70;87.80;;;;;;5039735;28;20102;-73
2022/11/15 00:41:25;;;;;;;2.83;1.10;;;15.70;87.80;;;;;;5031504;28;20068;-73
2022/11/15 00:43:51;;;;;;;1.80;0.90;;;15.70;87.80;;;;;;5032802;28;20036;-73
2022/11/15 00:46:17;;;;;;;2.65;0.88;;;15.70;88.00;;;;;;5040850;28;20370;-73
2022/11/15 00:48:42;;;;;;;3.10;1.00;;;15.70;87.80;;;;;;5034735;28;20553;-73
2022/11/15 00:51:08;;;;;;;4.80;0.80;;;15.70;87.90;;;;;;5052069;28;20021;-73
2022/11/15 00:53:33;;;;;;;3.97;0.95;;;15.70;87.90;;;;;;5051217;28;20028;-73
2022/11/15 00:55:59;;;;;;;8.82;1.60;;;15.70;88.00;;;;;;5052252;28;20021;-73
2022/11/15 00:58:25;;;;;;;2.33;1.20;;;15.70;88.00;;;;;;5052459;28;20068;-73
2022/11/15 01:00:50;;;;;;;1.98;0.82;;;15.70;88.10;;;;;;5034396;28;20017;-73
2022/11/15 01:03:16;;;;;;;2.40;0.95;;;15.70;88.00;;;;;;5052534;28;20036;-73
2022/11/15 01:05:42;;;;;;;1.10;0.70;;;15.70;88.10;;;;;;5050902;28;20403;-73
2022/11/15 01:08:12;;;;;;;2.78;1.10;;;15.70;88.00;;;;;;5018011;28;20471;-73
2022/11/15 01:10:38;;;;;;;5.20;1.00;;;15.70;88.00;;;;;;5032057;28;20021;-73
2022/11/15 01:13:03;;;;;;;4.03;1.00;;;15.70;88.00;;;;;;5034633;28;20036;-73
2022/11/15 01:15:29;;;;;;;0.82;0.60;;;15.70;88.00;;;;;;5036146;28;20036;-73
2022/11/15 01:17:54;;;;;;;1.15;0.65;;;15.70;88.00;;;;;;5034632;28;20033;-73
2022/11/15 01:20:20;;;;;;;1.63;0.60;;;15.70;88.00;;;;;;5035615;28;20044;-73
2022/11/15 01:22:46;;;;;;;3.45;0.93;;;15.70;88.10;;;;;;5035979;28;20549;-73
2022/11/15 01:25:11;;;;;;;1.42;0.70;;;15.70;88.00;;;;;;5035860;28;20457;-73
2022/11/15 01:27:37;;;;;;;2.28;0.90;;;15.70;88.00;;;;;;5035786;28;20080;-73
2022/11/15 01:30:04;;;;;;;3.00;0.70;;;15.70;88.10;;;;;;5035622;28;20372;-73
2022/11/15 01:32:29;;;;;;;0.93;0.80;;;15.70;88.00;;;;;;5034634;28;20021;-74
2022/11/15 01:34:55;;;;;;;1.70;0.60;;;15.70;88.00;;;;;;5033982;28;20034;-74
2022/11/15 01:37:20;;;;;;;1.80;0.60;;;15.70;88.00;;;;;;5035771;28;20025;-74
2022/11/15 01:39:46;;;;;;;1.25;0.80;;;15.70;88.00;;;;;;5034424;28;20040;-74
2022/11/15 01:42:13;;;;;;;3.17;0.80;;;15.70;88.10;;;;;;5035512;28;20100;-74
2022/11/15 01:44:48;;;;;;;5.63;1.00;;;15.70;88.10;;;;;;5034323;28;20067;-74
2022/11/15 01:47:23;;;;;;;1.95;0.93;;;15.70;88.10;;;;;;5033671;28;20379;-74
2022/11/15 01:50:04;;;;;;;3.15;1.20;;;15.70;88.10;;;;;;5037995;28;20051;-74
2022/11/15 01:52:31;;;;;;;2.83;0.88;;;15.70;88.20;;;;;;5054121;28;20051;-74
2022/11/15 01:55:05;;;;;;;1.65;0.60;;;15.70;88.10;;;;;;5020885;28;20361;-74
2022/11/15 01:57:31;;;;;;;1.13;0.60;;;15.70;88.20;;;;;;5055050;28;20094;-74
2022/11/15 01:59:57;;;;;;;1.35;0.57;;;15.70;88.10;;;;;;5053907;28;20021;-74
2022/11/15 02:02:22;;;;;;;1.38;0.75;;;15.70;88.20;;;;;;5053969;28;20029;-74
2022/11/15 02:04:48;;;;;;;2.42;0.70;;;15.70;88.20;;;;;;5053749;28;20021;-73
2022/11/15 02:07:16;;;;;;;3.45;0.70;;;15.70;88.10;;;;;;5044524;28;20029;-73
2022/11/15 02:09:42;;;;;;;0.93;0.70;;;15.70;88.20;;;;;;5033871;28;20017;-73
2022/11/15 02:12:08;;;;;;;3.30;0.60;;;15.70;88.20;;;;;;5017079;28;20031;-74
2022/11/15 02:14:33;;;;;;;2.55;0.60;;;15.70;88.20;;;;;;5033724;28;20488;-74
2022/11/15 02:17:08;;;;;;;3.35;1.00;;;15.80;88.20;;;;;;5017038;28;20037;-74
2022/11/15 02:19:34;;;;;;;1.90;0.70;;;15.70;88.20;;;;;;5018005;28;20010;-74
2022/11/15 02:22:31;;;;;;;1.08;0.70;;;15.70;88.20;;;;;;5034273;28;20093;-74
2022/11/15 02:25:04;;;;;;;1.33;0.80;;;15.70;88.20;;;;;;5018230;28;20110;-74
2022/11/15 02:27:44;;;;;;;1.00;0.60;;;15.70;88.20;;;;;;5033397;28;20023;-74
2022/11/15 02:30:44;;;;;;;3.03;1.08;;;15.70;88.20;;;;;;5034589;28;20037;-73
2022/11/15 02:33:23;;;;;;;1.65;0.60;;;15.70;88.20;;;;;;5033282;28;20025;-73
2022/11/15 02:35:58;;;;;;;1.77;1.17;;;15.70;88.20;;;;;;5033354;28;20105;-74
2022/11/15 02:38:30;;;;;;;1.90;0.82;;;15.80;88.30;;;;;;5033263;28;20021;-74
2022/11/15 02:41:04;;;;;;;2.38;0.98;;;15.80;88.50;;;;;;5034596;28;20029;-74
2022/11/15 02:43:56;;;;;;;2.65;0.70;;;15.80;88.30;;;;;;5017097;28;20032;-74
2022/11/15 02:46:22;;;;;;;2.63;0.80;;;15.70;88.20;;;;;;5028331;28;20484;-74
2022/11/15 02:48:48;;;;;;;2.05;0.90;;;15.80;88.30;;;;;;5053843;28;20029;-74
2022/11/15 02:51:13;;;;;;;1.10;0.50;;;15.80;88.30;;;;;;5036299;28;20037;-74
2022/11/15 02:53:39;;;;;;;2.53;0.75;;;15.80;88.30;;;;;;5035941;28;20032;-74
2022/11/15 02:56:05;;;;;;;1.77;0.70;;;15.80;88.30;;;;;;5052155;28;20013;-74
2022/11/15 02:58:56;;;;;;;2.00;0.68;;;15.70;88.20;;;;;;5052237;28;20045;-74
2022/11/15 03:01:35;;;;;;;3.65;0.95;;;15.80;88.30;;;;;;5051981;28;20028;-74
2022/11/15 03:04:12;;;;;;;3.35;0.88;;;15.80;88.30;;;;;;5052703;28;20039;-74
2022/11/15 03:07:11;;;;;;;0.90;0.50;;;15.80;88.30;;;;;;5049111;28;20029;-74
2022/11/15 03:09:55;;;;;;;1.77;0.77;;;15.70;88.30;;;;;;5031256;28;20041;-74
2022/11/15 03:12:24;;;;;;;2.47;0.73;;;15.80;88.20;;;;;;5014679;28;20061;-74
2022/11/15 03:14:58;;;;;;;0.60;0.50;;;15.70;88.30;;;;;;5014916;28;20040;-74
2022/11/15 03:17:26;;;;;;;2.72;0.60;;;15.80;88.30;;;;;;5031482;28;20025;-74
2022/11/15 03:19:56;;;;;;;1.30;0.60;;;15.80;88.30;;;;;;5015226;28;20048;-74
2022/11/15 03:22:24;;;;;;;1.58;0.70;;;15.80;88.30;;;;;;4998785;28;20024;-74
2022/11/15 03:24:52;;;;;;;1.08;0.60;;;15.70;88.20;;;;;;5014890;28;20121;-74
2022/11/15 03:27:19;;;;;;;2.85;0.60;;;15.80;88.30;;;;;;5015026;28;20028;-74
2022/11/15 03:29:47;;;;;;;0.52;0.50;;;15.80;88.20;;;;;;5015301;28;20026;-74
2022/11/15 03:32:16;;;;;;;1.98;0.70;;;15.80;88.30;;;;;;5016643;28;20046;-74
2022/11/15 03:34:51;;;;;;;3.28;0.50;;;15.80;88.30;;;;;;5022934;28;20124;-74
2022/11/15 03:37:17;;;;;;;3.20;0.93;;;15.80;88.30;;;;;;5015619;28;20484;-74
2022/11/15 03:39:42;;;;;;;0.50;0.40;;;15.80;88.40;;;;;;5025519;28;20045;-74
2022/11/15 03:42:22;;;;;;;1.58;0.50;;;15.80;88.40;;;;;;4998129;28;20017;-74
2022/11/15 03:45:15;;;;;;;0.70;0.50;;;15.80;88.40;;;;;;5018192;28;20038;-73
2022/11/15 03:47:44;;;;;;;2.00;0.63;;;15.80;88.40;;;;;;5031838;28;20045;-73
2022/11/15 03:50:16;;;;;;;0.93;0.47;;;15.80;88.50;;;;;;5031896;28;20036;-73
2022/11/15 03:52:42;;;;;;;1.40;0.88;;;15.80;88.50;;;;;;5031947;28;20468;-73
2022/11/15 03:55:10;;;;;;;3.50;0.57;;;15.80;88.50;;;;;;5031812;28;20095;-73
2022/11/15 03:57:36;;;;;;;2.30;0.65;;;15.80;88.60;;;;;;5031653;28;20037;-73
2022/11/15 04:00:03;;;;;;;2.53;0.60;;;15.80;88.50;;;;;;5032787;28;20027;-73
2022/11/15 04:02:29;;;;;;;1.77;0.43;;;15.80;88.50;;;;;;5048472;28;20021;-73
2022/11/15 04:04:55;;;;;;;1.23;0.60;;;15.80;88.60;;;;;;5033135;28;20048;-73
2022/11/15 04:07:20;;;;;;;0.93;0.60;;;15.80;88.60;;;;;;5024735;28;20030;-73
2022/11/15 04:10:05;;;;;;;4.15;0.63;;;15.80;88.60;;;;;;5031692;28;20034;-73
2022/11/15 04:12:35;;;;;;;3.42;0.80;;;15.80;88.60;;;;;;5032881;28;20030;-73
2022/11/15 04:15:08;;;;;;;1.23;0.80;;;15.80;88.50;;;;;;5031326;28;20033;-74
2022/11/15 04:17:41;;;;;;;1.20;0.57;;;15.80;88.60;;;;;;5015976;28;20104;-73
2022/11/15 04:25:51;;;;;;;5.03;0.50;;;15.80;88.60;;;;;;5018646;28;20072;-74
2022/11/15 04:28:17;;;;;;;5.00;0.70;;;15.80;88.60;;;;;;5015076;28;20079;-74
2022/11/15 04:30:43;;;;;;;1.40;0.70;;;15.80;88.60;;;;;;5031757;28;20418;-74
2022/11/15 04:33:08;;;;;;;0.85;0.50;;;15.80;88.60;;;;;;5031343;28;20014;-74
2022/11/15 04:35:34;;;;;;;2.13;0.50;;;15.80;88.60;;;;;;5031530;28;20048;-74
2022/11/15 04:38:00;;;;;;;2.53;0.52;;;15.80;88.60;;;;;;5031696;28;20068;-74
2022/11/15 04:40:26;;;;;;;2.03;0.80;;;15.80;88.60;;;;;;5015167;28;20071;-74
2022/11/15 04:42:51;;;;;;;1.70;0.60;;;15.80;88.60;;;;;;5031531;28;20104;-74
2022/11/15 04:45:17;;;;;;;0.85;0.60;;;15.80;88.60;;;;;;5033399;28;20028;-74
2022/11/15 04:47:46;;;;;;;7.93;0.60;;;15.80;88.60;;;;;;5055403;28;20365;-74
2022/11/15 04:50:13;;;;;;;1.42;0.95;;;15.80;88.60;;;;;;5038617;28;20028;-74
2022/11/15 04:52:50;;;;;;;0.90;0.50;;;15.80;88.60;;;;;;5055207;28;20013;-74
2022/11/15 04:55:16;;;;;;;2.28;0.52;;;15.80;88.60;;;;;;5055192;28;20025;-74
2022/11/15 04:57:41;;;;;;;1.52;0.47;;;15.80;88.60;;;;;;5054963;28;20094;-74
2022/11/15 05:00:09;;;;;;;1.88;0.60;;;15.80;88.60;;;;;;5055037;28;20032;-74
2022/11/15 05:05:18;;;;;;;1.35;0.60;;;15.80;88.60;;;;;;5055331;28;20078;-74
2022/11/15 05:07:44;;;;;;;1.25;0.57;;;15.80;88.60;;;;;;5041419;28;20120;-74
2022/11/15 05:10:10;;;;;;;2.20;0.38;;;15.80;88.60;;;;;;5034870;28;20472;-74
2022/11/15 05:12:36;;;;;;;1.27;0.50;;;15.80;88.60;;;;;;5034797;28;20105;-74
2022/11/15 05:15:01;;;;;;;0.80;0.50;;;15.80;88.60;;;;;;5035060;28;20667;-73
2022/11/15 05:17:27;;;;;;;3.88;0.80;;;15.80;88.60;;;;;;5034745;28;20025;-73
2022/11/15 05:19:52;;;;;;;0.63;0.40;;;15.80;88.50;;;;;;5036111;28;20464;-73
2022/11/15 05:22:18;;;;;;;0.98;0.47;;;15.80;88.60;;;;;;5035818;28;20379;-73
2022/11/15 05:24:44;;;;;;;4.63;0.60;;;15.80;88.60;;;;;;5034663;28;20087;-73
2022/11/15 05:27:10;;;;;;;0.80;0.40;;;15.80;88.60;;;;;;5018008;28;20029;-73
2022/11/15 05:29:35;;;;;;;0.65;0.40;;;15.80;88.60;;;;;;5036074;28;20022;-73
2022/11/15 05:32:02;;;;;;;1.83;0.60;;;15.80;88.60;;;;;;5035997;28;20029;-73
2022/11/15 05:34:28;;;;;;;0.40;0.40;;;15.80;88.60;;;;;;5034422;28;20045;-73
2022/11/15 05:36:53;;;;;;;0.57;0.43;;;15.80;88.70;;;;;;5035614;28;20583;-73
2022/11/15 05:39:19;;;;;;;0.47;0.40;;;15.80;88.60;;;;;;5034344;28;20028;-73
2022/11/15 05:41:50;;;;;;;0.80;0.40;;;15.80;88.60;;;;;;5035535;28;20079;-73
2022/11/15 05:44:18;;;;;;;2.55;0.60;;;15.80;88.60;;;;;;5034487;28;20029;-73
2022/11/15 05:46:43;;;;;;;6.80;0.73;;;15.80;88.70;;;;;;5046294;28;20048;-73
2022/11/15 05:49:10;;;;;;;1.65;0.77;;;15.80;88.60;;;;;;5037706;28;20491;-74
2022/11/15 05:51:36;;;;;;;1.50;0.70;;;15.80;88.60;;;;;;5037507;28;20463;-74
2022/11/15 05:54:02;;;;;;;5.90;0.55;;;15.80;88.60;;;;;;5054081;28;20062;-74
2022/11/15 05:56:28;;;;;;;2.55;0.50;;;15.80;88.70;;;;;;5052880;28;20483;-74
2022/11/15 05:58:54;;;;;;;2.15;0.65;;;15.80;88.70;;;;;;5037457;28;20488;-73
2022/11/15 06:01:20;;;;;;;1.15;0.60;;;15.80;88.70;;;;;;5053895;28;20032;-73
2022/11/15 06:03:45;;;;;;;1.02;0.40;;;15.80;88.60;;;;;;5053973;28;20083;-73
2022/11/15 06:06:11;;;;;;;3.33;0.68;;;15.80;88.70;;;;;;5054491;28;20032;-73
2022/11/15 06:08:36;;;;;;;1.55;0.40;;;15.80;88.70;;;;;;5034166;28;20463;-73
2022/11/15 06:11:06;;;;;;;1.33;0.50;;;15.80;88.60;;;;;;5034708;28;20062;-73
2022/11/15 06:13:32;;;;;;;1.40;0.57;;;15.80;88.70;;;;;;5033451;28;20104;-73
2022/11/15 06:15:58;;;;;;;1.02;0.40;;;15.80;88.70;;;;;;5033685;28;20025;-73
2022/11/15 06:18:23;;;;;;;0.50;0.47;;;15.80;88.70;;;;;;5033786;28;20372;-73
2022/11/15 06:20:49;;;;;;;0.30;0.30;;;15.80;88.70;;;;;;5034871;28;20045;-73
2022/11/15 06:23:15;;;;;;;0.75;0.50;;;15.80;88.70;;;;;;5034927;28;20075;-73
2022/11/15 06:25:40;;;;;;;2.28;0.50;;;15.80;88.70;;;;;;5033249;28;20029;-73
2022/11/15 06:28:07;;;;;;;0.77;0.38;;;15.80;88.70;;;;;;5033569;28;20026;-73
2022/11/15 06:30:32;;;;;;;1.38;0.50;;;15.80;88.90;;;;;;5034742;28;20395;-73
2022/11/15 06:33:02;;;;;;;2.70;0.50;;;15.80;88.90;;;;;;5035173;28;20017;-74
2022/11/15 06:35:28;;;;;;;2.85;0.60;;;15.80;88.90;;;;;;5040858;28;20029;-74
2022/11/15 06:37:53;;;;;;;1.65;0.30;;;15.80;88.80;;;;;;5036179;28;20493;-74
2022/11/15 06:40:19;;;;;;;1.25;0.63;;;15.80;88.80;;;;;;5053465;28;20028;-74
2022/11/15 06:42:44;;;;;;;1.10;0.50;;;15.90;89.00;;;;;;5052516;28;20118;-74
2022/11/15 06:45:10;;;;;;;1.45;0.40;;;15.80;88.90;;;;;;5052698;28;20115;-74
2022/11/15 06:47:36;;;;;;;1.50;0.50;;;15.80;88.90;;;;;;5033136;28;20109;-74
2022/11/15 06:50:01;;;;;;;1.85;0.50;;;15.80;88.90;;;;;;5016053;28;20029;-74
2022/11/15 06:52:32;;;;;;;1.17;0.40;;;15.80;89.00;;;;;;5016145;28;20439;-74
2022/11/15 06:54:58;;;;;;;1.77;0.52;;;15.80;89.00;;;;;;5033283;28;20032;-74
2022/11/15 06:57:23;;;;;;;0.60;0.40;;;15.80;89.00;;;;;;5032160;28;20045;-74
2022/11/15 06:59:49;;;;;;;2.72;0.50;;;15.80;89.00;;;;;;5033630;28;20064;-74
2022/11/15 07:02:14;;;;;;;4.30;0.65;;;15.80;89.10;;;;;;5032169;28;20177;-74
2022/11/15 07:04:40;;;;;;;0.93;0.40;;;15.80;89.10;;;;;;5015778;28;20034;-74
2022/11/15 07:07:06;;;;;;;1.77;0.43;;;15.80;89.20;;;;;;5032131;28;20036;-73
2022/11/15 07:09:31;;;;;;;0.68;0.50;;;15.90;89.20;;;;;;5032959;28;20505;-74
2022/11/15 07:11:57;;;;;;;1.50;0.65;;;15.90;89.20;;;;;;5032162;28;20021;-73
2022/11/15 07:14:22;;;;;;;1.20;0.40;;;15.90;89.30;;;;;;5031848;28;20036;-73
2022/11/15 07:16:48;;;;;;;0.30;0.30;;;15.90;89.10;;;;;;5031911;28;20464;-74
2022/11/15 07:19:14;;;;;;;0.10;0.10;;;15.90;88.80;;;;;;5033292;28;20030;-73
2022/11/15 07:21:39;;;;;;;0.65;0.32;;;15.80;88.20;;;;;;5033058;28;20859;-73
2022/11/15 07:24:05;;;;;;;1.38;0.40;;;15.90;87.80;;;;;;5031751;28;20037;-73
2022/11/15 07:26:31;;;;;;;0.88;0.40;;;15.80;87.80;;;;;;5052298;28;20029;-73
2022/11/15 07:28:56;;;;;;;0.20;0.20;;;15.80;87.90;;;;;;5052862;28;20028;-73
2022/11/15 07:31:22;;;;;;;0.40;0.30;;;15.90;87.80;;;;;;5051709;28;20025;-73
2022/11/15 07:33:48;;;;;;;1.30;0.30;;;15.80;87.70;;;;;;5052801;28;20031;-73
2022/11/15 07:36:13;;;;;;;0.65;0.30;;;15.80;87.60;;;;;;5052904;28;20039;-73
2022/11/15 07:38:39;;;;;;;0.55;0.30;;;15.80;87.60;;;;;;5051246;28;20025;-73
2022/11/15 07:41:05;;;;;;;1.52;0.45;;;15.80;87.50;;;;;;5051506;28;20044;-73
2022/11/15 07:43:33;;;;;;;0.28;0.20;;;15.80;87.50;;;;;;5034958;28;20028;-73
2022/11/15 07:45:59;;;;;;;2.80;0.70;;;15.80;87.40;;;;;;5045777;28;20100;-73
2022/11/15 07:48:24;;;;;;;0.30;0.30;;;15.80;87.30;;;;;;5015108;28;20472;-74
2022/11/15 07:50:50;;;;;;;20.05;2.28;;;15.80;87.30;;;;;;5032360;28;20495;-73
2022/11/15 07:53:16;;;;;;;25.35;2.95;;;15.80;87.30;;;;;;5032277;28;20416;-74
2022/11/15 07:55:41;;;;;;;21.63;2.47;;;15.80;87.40;;;;;;5031836;28;20499;-74
2022/11/15 07:58:09;;;;;;;7.60;1.20;;;15.80;87.40;;;;;;5031667;28;20132;-74
2022/11/15 08:00:35;;;;;;;23.05;2.13;;;15.80;87.40;;;;;;5014987;28;20083;-74
2022/11/15 08:03:07;;;;;;;19.50;2.30;;;15.80;87.30;;;;;;5031430;28;20025;-74
2022/11/15 08:05:33;;;;;;;;;;;15.80;87.40;;;;;;5032540;28;20022;-74
2022/11/15 08:07:59;;;;;;;21.25;3.03;;;15.80;87.40;;;;;;5030031;28;19983;-74
2022/11/15 08:10:25;;;;;;;23.92;2.83;;;15.80;87.50;;;;;;5030800;28;20051;-74
2022/11/15 08:13:02;;;;;;;19.33;3.42;;;15.80;87.50;;;;;;5035700;28;20100;-74
2022/11/15 08:15:27;;;;;;;28.92;4.15;;;15.70;87.40;;;;;;5025694;28;20022;-74
2022/11/15 08:17:57;;;;;;;16.00;3.45;;;15.80;87.40;;;;;;5037715;28;20070;-74
2022/11/15 08:20:23;;;;;;;16.10;3.00;;;15.80;87.50;;;;;;5036398;28;20025;-74
2022/11/15 08:22:48;;;;;;;22.92;3.35;;;15.80;87.50;;;;;;5056414;28;20028;-74
2022/11/15 08:25:14;;;;;;;24.92;3.35;;;15.80;87.50;;;;;;5057866;28;20368;-74
2022/11/15 08:27:40;;;;;;;19.58;3.88;;;15.70;87.40;;;;;;5057423;28;20064;-74
2022/11/15 08:30:07;;;;;;;27.25;3.65;;;15.80;87.40;;;;;;5050255;28;20577;-74
2022/11/15 08:32:32;;;;;;;17.77;3.38;;;15.80;87.40;;;;;;5037815;28;20033;-74
2022/11/15 08:34:58;;;;;;;13.32;2.83;;;15.70;87.40;;;;;;5037311;28;20399;-74
2022/11/15 08:37:24;;;;;;;19.13;3.50;;;15.80;87.40;;;;;;5038681;28;20030;-74
2022/11/15 08:39:49;;;;;;;14.70;3.15;;;15.70;87.30;;;;;;5037507;28;20091;-74
2022/11/15 08:42:16;;;;;;;20.35;2.78;;;15.70;87.40;;;;;;5038618;28;20087;-74
2022/11/15 08:44:42;;;;;;;20.52;3.60;;;15.70;87.30;;;;;;5037480;28;20109;-74
2022/11/15 08:47:07;;;;;;;17.05;3.53;;;15.70;87.30;;;;;;5045718;28;20108;-74
2022/11/15 08:49:33;;;;;;;20.73;2.78;;;15.70;87.40;;;;;;5057181;28;20032;-74
2022/11/15 08:51:59;;;;;;;21.95;3.28;;;15.70;87.30;;;;;;5040884;28;20024;-74
2022/11/15 08:54:24;;;;;;;16.00;3.42;;;15.70;87.20;;;;;;5057396;28;20086;-74
2022/11/15 08:56:50;;;;;;;13.27;3.05;;;15.70;87.30;;;;;;5058255;28;20021;-74
2022/11/15 08:59:16;;;;;;;20.00;2.90;;;15.70;87.30;;;;;;5040896;28;20029;-74
2022/11/15 09:01:41;;;;;;;16.95;3.15;;;15.70;87.30;;;;;;5058506;28;20390;-74
2022/11/15 09:04:08;;;;;;;16.70;3.58;;;15.70;87.20;;;;;;5057267;28;20055;-74
2022/11/15 09:06:34;;;;;;;14.93;2.85;;;15.70;87.20;;;;;;5053707;28;20029;-74
2022/11/15 09:09:00;;;;;;;23.17;3.53;;;15.70;87.10;;;;;;5036925;28;20057;-74
2022/11/15 09:11:26;;;;;;;18.27;3.67;;;15.70;87.10;;;;;;5038691;28;20039;-74
2022/11/15 09:13:52;;;;;;;20.63;3.30;;;15.70;87.10;;;;;;5037253;28;20025;-74
2022/11/15 09:16:18;;;;;;;16.60;3.45;;;15.70;87.10;;;;;;5037224;28;20023;-74
2022/11/15 09:18:43;;;;;;;14.90;2.97;;;15.70;87.00;;;;;;5036900;28;20032;-74
2022/11/15 09:21:09;;;;;;;16.80;4.03;;;15.70;87.00;;;;;;5044528;28;20021;-74
2022/11/15 09:23:35;;;;;;;15.75;3.03;;;15.70;87.00;;;;;;5056834;28;20033;-74
2022/11/15 09:26:02;;;;;;;15.25;3.05;;;15.70;87.00;;;;;;5024049;28;20029;-74
2022/11/15 09:28:28;;;;;;;12.30;3.17;;;15.70;87.00;;;;;;5057194;28;20040;-74
2022/11/15 09:30:58;;;;;;;14.75;3.17;;;15.70;87.00;;;;;;5055054;28;20017;-74
2022/11/15 09:33:24;;;;;;;12.90;3.15;;;15.70;86.90;;;;;;5053519;28;20112;-74
2022/11/15 09:35:49;;;;;;;14.98;3.28;;;15.70;86.90;;;;;;5053748;28;20598;-74
2022/11/15 09:38:15;;;;;;;14.05;3.28;;;15.70;87.00;;;;;;5055195;28;20029;-74
2022/11/15 09:40:41;;;;;;;19.35;4.15;;;15.70;86.90;;;;;;5054944;28;20032;-74
2022/11/15 09:43:33;;;;;;;17.42;3.40;;;15.70;86.90;;;;;;5053539;28;20115;-74
2022/11/15 09:46:15;;;;;;;11.70;2.92;;;15.70;86.90;;;;;;5053655;28;20025;-74
2022/11/15 09:48:53;;;;;;;18.65;2.97;;;15.70;86.90;;;;;;5037834;28;20021;-74
2022/11/15 09:51:23;;;;;;;17.45;3.35;;;15.60;86.90;;;;;;5053523;28;20057;-74
2022/11/15 09:53:57;;;;;;;18.73;3.10;;;15.70;87.00;;;;;;5036669;28;20506;-74
2022/11/15 09:56:27;;;;;;;17.05;3.03;;;15.70;86.90;;;;;;5037243;28;20475;-74
2022/11/15 09:59:11;;;;;;;14.75;3.80;;;15.70;86.90;;;;;;5036683;28;20499;-74
2022/11/15 10:01:54;;;;;;;13.75;3.10;;;15.70;86.90;;;;;;5054311;28;20097;-74
2022/11/15 10:04:20;;;;;;;11.80;2.85;;;15.70;86.80;;;;;;5053227;28;20036;-74
2022/11/15 10:07:01;;;;;;;11.68;3.28;;;15.70;86.80;;;;;;5031312;28;20498;-74
2022/11/15 10:09:49;;;;;;;19.25;3.53;;;15.70;86.80;;;;;;5033185;28;20033;-74
2022/11/15 10:12:15;;;;;;;14.32;3.58;;;15.60;86.70;;;;;;5033472;28;20031;-74
2022/11/15 10:14:40;;;;;;;9.65;2.50;;;15.60;86.80;;;;;;5033214;28;20022;-74
2022/11/15 10:17:31;;;;;;;10.68;3.42;;;15.60;86.80;;;;;;5032965;28;20503;-74
2022/11/15 10:20:12;;;;;;;14.43;2.90;;;15.60;86.70;;;;;;5034304;28;20607;-74
2022/11/15 10:22:50;;;;;;;18.90;3.33;;;15.60;86.70;;;;;;5052438;28;20020;-74
2022/11/15 10:25:17;;;;;;;13.45;3.00;;;15.60;86.70;;;;;;5036819;28;20404;-74
2022/11/15 10:27:44;;;;;;;15.13;2.55;;;15.60;86.80;;;;;;5053887;28;20025;-74
2022/11/15 10:30:16;;;;;;;13.35;2.78;;;15.60;87.70;;;;;;5036379;28;20029;-74
2022/11/15 10:32:43;;;;;;;14.63;3.00;;;15.60;86.70;;;;;;5052538;28;20120;-74
2022/11/15 10:35:23;;;;;;;12.93;2.50;;;15.60;86.70;;;;;;5036373;28;20029;-74
2022/11/15 10:37:49;;;;;;;13.52;2.17;;;15.60;86.70;;;;;;5053641;28;20032;-74
2022/11/15 10:40:24;;;;;;;9.70;2.40;;;15.60;86.70;;;;;;5052634;28;20021;-74
2022/11/15 10:43:15;;;;;;;13.60;2.72;;;15.60;86.60;;;;;;5052192;28;20021;-74
2022/11/15 10:45:40;;;;;;;11.30;2.75;;;15.60;86.60;;;;;;5052400;28;20060;-74
2022/11/15 10:48:24;;;;;;;8.38;2.47;;;15.60;86.60;;;;;;5052456;28;20045;-74
2022/11/15 10:50:51;;;;;;;15.95;2.60;;;15.60;86.60;;;;;;5035758;28;20021;-74
2022/11/15 10:53:28;;;;;;;13.35;2.50;;;15.60;86.60;;;;;;5035918;28;20033;-74
2022/11/15 10:56:05;;;;;;;8.05;2.50;;;15.60;86.60;;;;;;5052384;28;20343;-74
2022/11/15 10:58:32;;;;;;;7.63;2.50;;;15.60;86.50;;;;;;5036685;28;20045;-74
2022/11/15 11:01:11;;;;;;;12.38;2.40;;;15.60;86.50;;;;;;5035325;28;20032;-74
2022/11/15 11:03:38;;;;;;;10.45;2.15;;;15.60;86.60;;;;;;5035968;28;20056;-74
2022/11/15 11:06:10;;;;;;;15.82;3.03;;;15.60;86.50;;;;;;5052139;28;20191;-74
2022/11/15 11:08:36;;;;;;;9.40;2.53;;;15.60;86.60;;;;;;5033606;28;20034;-74
2022/11/15 11:11:03;;;;;;;15.45;2.72;;;15.60;86.60;;;;;;5015477;28;20112;-74
2022/11/15 11:13:31;;;;;;;11.45;2.50;;;15.60;86.50;;;;;;5032136;28;20117;-74
2022/11/15 11:16:14;;;;;;;12.27;2.60;;;15.60;86.50;;;;;;5031894;28;20028;-73
2022/11/15 11:19:01;;;;;;;9.70;2.45;;;15.50;86.40;;;;;;5033328;28;20396;-74
2022/11/15 11:21:49;;;;;;;9.43;2.50;;;15.50;86.40;;;;;;5042763;28;20210;-74
2022/11/15 11:24:25;;;;;;;12.02;3.25;;;15.50;86.50;;;;;;5052932;28;20017;-74
2022/11/15 11:26:54;;;;;;;8.93;2.47;;;15.60;86.50;;;;;;5052756;28;20399;-74
2022/11/15 11:29:28;;;;;;;11.95;2.50;;;15.60;86.50;;;;;;5051511;28;20017;-74
2022/11/15 11:32:23;;;;;;;8.32;2.67;;;15.50;86.40;;;;;;5036009;28;20025;-74
2022/11/15 11:35:10;;;;;;;9.57;2.35;;;15.60;86.40;;;;;;5037214;28;20017;-74
2022/11/15 11:37:40;;;;;;;11.52;2.20;;;15.60;86.40;;;;;;5051766;28;20033;-74
2022/11/15 11:40:40;;;;;;;11.20;2.30;;;15.60;86.50;;;;;;5051524;28;20467;-74
2022/11/15 11:43:41;;;;;;;11.07;2.83;;;15.50;86.40;;;;;;5051192;28;20479;-74
2022/11/15 11:46:58;;;;;;;11.50;2.40;;;15.50;86.30;;;;;;5051387;28;20029;-74
2022/11/15 11:49:35;;;;;;;11.27;2.65;;;15.50;86.30;;;;;;5050479;28;20041;-74
2022/11/15 11:52:41;;;;;;;13.55;2.50;;;15.50;86.30;;;;;;5033947;28;20495;-74
2022/11/15 11:55:25;;;;;;;7.90;2.13;;;15.50;86.30;;;;;;4954720;28;20059;-74
2022/11/15 11:58:09;;;;;;;11.23;2.38;;;15.50;86.30;;;;;;4955976;28;20043;-74
2022/11/15 12:00:45;;;;;;;6.72;2.15;;;15.50;86.30;;;;;;4957962;28;20030;-74
2022/11/15 12:03:16;;;;;;;11.30;1.60;;;15.50;86.30;;;;;;4956695;28;20118;-74
2022/11/15 12:05:52;;;;;;;13.13;2.15;;;15.50;86.30;;;;;;4955474;28;20623;-74
2022/11/15 12:08:56;;;;;;;9.77;2.83;;;15.50;86.30;;;;;;4956366;28;20046;-74
2022/11/15 12:11:38;;;;;;;8.85;2.50;;;15.50;86.30;;;;;;4936094;29;20390;-74
2022/11/15 12:14:10;;;;;;;11.75;2.17;;;15.60;86.30;;;;;;4935815;29;20612;-74
2022/11/15 12:16:36;;;;;;;8.07;2.10;;;15.50;86.30;;;;;;4936219;29;20481;-74
2022/11/15 12:19:03;;;;;;;8.27;1.90;;;15.50;86.30;;;;;;4936029;29;20505;-74
2022/11/15 12:21:46;;;;;;;9.25;2.08;;;15.50;86.30;;;;;;4945535;28;20031;-74
2022/11/15 12:24:34;;;;;;;11.00;2.00;;;15.50;86.30;;;;;;4971206;28;20065;-74
2022/11/15 12:27:05;;;;;;;9.07;2.17;;;15.60;86.30;;;;;;4939418;28;20039;-74
2022/11/15 12:29:36;;;;;;;8.02;1.95;;;15.50;86.20;;;;;;4939823;28;20051;-74
2022/11/15 12:32:03;;;;;;;10.35;2.30;;;15.50;86.30;;;;;;4971383;28;20093;-74
2022/11/15 12:34:35;;;;;;;11.02;2.17;;;15.50;86.20;;;;;;4971284;28;20035;-74
2022/11/15 12:37:01;;;;;;;6.07;2.10;;;15.50;86.20;;;;;;4955346;28;20481;-74
2022/11/15 12:40:04;;;;;;;12.68;2.10;;;15.50;86.20;;;;;;4955275;28;20456;-74
2022/11/15 12:42:30;;;;;;;5.90;1.88;;;15.60;86.30;;;;;;4971244;28;20073;-74
2022/11/15 12:44:59;;;;;;;9.70;2.03;;;15.50;86.20;;;;;;4970918;28;20100;-74
2022/11/15 12:47:25;;;;;;;8.25;2.35;;;15.50;86.20;;;;;;4982752;28;20511;-74
2022/11/15 12:49:51;;;;;;;5.95;1.92;;;15.50;86.20;;;;;;5032084;28;20021;-74
2022/11/15 12:52:17;;;;;;;8.65;1.85;;;15.50;86.20;;;;;;5032038;28;20079;-74
2022/11/15 12:54:43;;;;;;;7.90;1.90;;;15.50;86.20;;;;;;5030718;28;20567;-74
2022/11/15 12:57:14;;;;;;;6.13;1.83;;;15.50;86.30;;;;;;5031520;28;20045;-74
2022/11/15 13:00:01;;;;;;;8.65;1.88;;;15.60;86.30;;;;;;5031974;28;20136;-74
2022/11/15 13:02:33;;;;;;;6.88;2.08;;;15.50;86.10;;;;;;5031052;28;20384;-74
2022/11/15 13:07:40;;;;;;;9.45;1.80;;;15.50;86.10;;;;;;5035534;28;20041;-74